Time;durP1;ratioP1;P1;durP2;ratioP2;P2;SDS_P1;SDS_P2;PMS_P1;PMS_P2;Temp;Humidity;BMP_temperature;BMP_pressure;BME280_temperature;BME280_humidity;BME280_pressure;Samples;Min_cycle;Max_cycle;Signal;HPM_P1;HPM_P2
2022/02/27 00:01:47;;;;;;;;;;;154.20;2252.80;;;;;;6190254;23;19927;-78
2022/02/27 00:04:12;;;;;;;;;;;154.20;2252.80;;;;;;6216882;23;20335;-78
2022/02/27 00:06:38;;;;;;;;;;;154.10;2252.80;;;;;;6216884;23;19954;-77
2022/02/27 00:09:04;;;;;;;;;;;154.00;2252.80;;;;;;6190297;23;19900;-76
2022/02/27 00:11:29;;;;;;;;;;;154.00;2252.80;;;;;;6190253;23;19907;-76
2022/02/27 00:13:55;;;;;;;;;;;153.90;2252.80;;;;;;6190303;23;19900;-77
2022/02/27 00:16:21;;;;;;;;;;;154.00;2252.80;;;;;;6217158;23;19907;-77
2022/02/27 00:18:47;;;;;;;;;;;153.90;2252.80;;;;;;6216781;23;19900;-77
2022/02/27 00:21:12;;;;;;;;;;;153.90;2252.80;;;;;;6216731;23;20295;-77
2022/02/27 00:23:38;;;;;;;;;;;154.00;2252.80;;;;;;6190254;23;19908;-77
2022/02/27 00:26:04;;;;;;;;;;;153.80;2252.80;;;;;;6216600;23;20337;-87
2022/02/27 00:28:30;;;;;;;;;;;;;;;;;;6217201;23;19899;-79
2022/02/27 00:30:56;;;;;;;;;;;153.80;2252.80;;;;;;6216895;23;20340;-76
2022/02/27 00:33:21;;;;;;;;;;;153.70;2252.80;;;;;;6217251;23;19900;-88
2022/02/27 00:35:47;;;;;;;;;;;153.80;2252.80;;;;;;6217123;23;19899;-86
2022/02/27 00:38:13;;;;;;;;;;;153.80;2252.80;;;;;;6216914;23;19927;-77
2022/02/27 00:40:39;;;;;;;;;;;153.90;2252.80;;;;;;6216879;23;20335;-87
2022/02/27 00:43:05;;;;;;;;;;;153.80;2252.80;;;;;;6190257;23;19915;-88
2022/02/27 00:45:31;;;;;;;;;;;153.80;2252.80;;;;;;6190320;23;19900;-77
2022/02/27 00:47:56;;;;;;;;;;;153.80;2252.80;;;;;;6216745;23;19899;-89
2022/02/27 00:50:22;;;;;;;;;;;153.80;2252.80;;;;;;6190259;23;20286;-78
2022/02/27 00:52:48;;;;;;;;;;;153.70;2252.80;;;;;;6190262;23;19900;-76
2022/02/27 00:55:14;;;;;;;;;;;153.70;2252.80;;;;;;6216777;23;19900;-76
2022/02/27 00:57:40;;;;;;;;;;;153.70;2252.80;;;;;;6190212;23;19903;-76
2022/02/27 01:00:06;;;;;;;;;;;153.70;2252.80;;;;;;6190309;23;19900;-86
2022/02/27 01:02:31;;;;;;;;;;;153.70;2252.80;;;;;;6189906;23;19947;-76
2022/02/27 01:04:57;;;;;;;;;;;153.60;2252.80;;;;;;6190056;23;19911;-77
2022/02/27 01:07:23;;;;;;;;;;;153.70;2252.80;;;;;;6216583;23;20357;-78
2022/02/27 01:09:48;;;;;;;;;;;153.60;2252.80;;;;;;6216466;23;19899;-76
2022/02/27 01:12:14;;;;;;;;;;;153.60;2252.80;;;;;;6216619;23;19908;-85
2022/02/27 01:14:40;;;;;;;;;;;153.60;2252.80;;;;;;6189892;23;19906;-77
2022/02/27 01:17:06;;;;;;;;;;;153.60;2252.80;;;;;;6216625;23;19979;-87
2022/02/27 01:19:33;;;;;;;;;;;153.60;2252.80;;;;;;6190144;23;19970;-76
2022/02/27 01:21:59;;;;;;;;;;;153.60;2252.80;;;;;;6216518;23;20364;-76
2022/02/27 01:24:24;;;;;;;;;;;128.90;2252.80;;;;;;6217792;23;19908;-76
2022/02/27 01:26:51;;;;;;;;;;;128.90;2252.80;;;;;;6218286;23;19912;-76
2022/02/27 01:29:16;;;;;;;;;;;153.60;2252.80;;;;;;6218514;23;19899;-76
2022/02/27 01:31:42;;;;;;;;;;;128.90;2252.80;;;;;;6191844;23;19903;-76
2022/02/27 01:34:08;;;;;;;;;;;153.60;2252.80;;;;;;6191923;23;20319;-88
2022/02/27 01:36:34;;;;;;;;;;;128.90;2252.80;;;;;;6218604;23;19900;-76
2022/02/27 01:38:59;;;;;;;;;;;128.90;2252.80;;;;;;6218513;23;19907;-76
2022/02/27 01:41:25;;;;;;;;;;;153.60;2252.80;;;;;;6218769;23;19978;-76
2022/02/27 01:43:51;;;;;;;;;;;128.90;2252.80;;;;;;6217372;23;20234;-76
2022/02/27 01:46:17;;;;;;;;;;;128.60;2252.80;;;;;;6190207;23;20030;-77
2022/02/27 01:48:43;;;;;;;;;;;128.90;2252.80;;;;;;6218025;23;19904;-77
2022/02/27 01:51:09;;;;;;;;;;;128.90;2252.80;;;;;;6217984;23;19906;-77
2022/02/27 01:53:35;;;;;;;;;;;128.90;2252.80;;;;;;6218037;23;19900;-76
2022/02/27 01:56:01;;;;;;;;;;;128.90;2252.80;;;;;;6191381;23;20328;-77
2022/02/27 01:58:27;;;;;;;;;;;128.80;2252.80;;;;;;6218099;23;19900;-76
2022/02/27 02:00:56;;;;;;;;;;;128.80;2252.80;;;;;;6218196;23;19907;-77
2022/02/27 02:03:22;;;;;;;;;;;128.80;2252.80;;;;;;6191543;23;19907;-88
2022/02/27 02:05:48;;;;;;;;;;;128.90;2252.80;;;;;;6191521;23;19993;-77
2022/02/27 02:08:14;;;;;;;;;;;128.90;2252.80;;;;;;6191605;23;19900;-84
2022/02/27 02:10:41;;;;;;;;;;;128.90;2252.80;;;;;;6218081;23;19954;-77
2022/02/27 02:13:07;;;;;;;;;;;128.90;2252.80;;;;;;6191434;23;19903;-78
2022/02/27 02:15:33;;;;;;;;;;;128.80;2252.80;;;;;;6191598;23;19911;-77
2022/02/27 02:17:59;;;;;;;;;;;128.80;2252.80;;;;;;6218005;23;19907;-89
2022/02/27 02:20:24;;;;;;;;;;;128.90;2252.80;;;;;;6191506;23;19907;-77
2022/02/27 02:22:50;;;;;;;;;;;128.80;2252.80;;;;;;6217870;23;19904;-77
2022/02/27 02:25:16;;;;;;;;;;;128.80;2252.80;;;;;;6217643;23;19918;-77
2022/02/27 02:27:42;;;;;;;;;;;128.80;2252.80;;;;;;6191504;23;20301;-89
2022/02/27 02:30:09;;;;;;;;;;;128.80;2252.80;;;;;;6191252;23;19900;-85
2022/02/27 02:32:45;;;;;;;;;;;153.60;2252.80;;;;;;6191350;23;20324;-77
2022/02/27 02:35:11;;;;;;;;;;;128.80;2252.80;;;;;;6190388;23;19904;-76
2022/02/27 02:37:37;;;;;;;;;;;128.80;2252.80;;;;;;6217847;23;19923;-76
2022/02/27 02:40:04;;;;;;;;;;;128.80;2252.80;;;;;;6217784;23;19907;-77
2022/02/27 02:42:30;;;;;;;;;;;128.90;2252.80;;;;;;6191028;23;19908;-76
2022/02/27 02:44:55;;;;;;;;;;;128.80;2252.80;;;;;;6191248;23;19934;-77
2022/02/27 02:47:21;;;;;;;;;;;128.80;2252.80;;;;;;6217671;23;19900;-77
2022/02/27 02:49:47;;;;;;;;;;;128.80;2252.80;;;;;;6218020;23;19978;-77
2022/02/27 02:52:15;;;;;;;;;;;128.80;2252.80;;;;;;6217655;23;19900;-80
2022/02/27 02:54:41;;;;;;;;;;;128.80;2252.80;;;;;;6191363;23;20233;-77
2022/02/27 02:57:07;;;;;;;;;;;128.80;2252.80;;;;;;6217696;23;19900;-88
2022/02/27 02:59:32;;;;;;;;;;;128.80;2252.80;;;;;;6217758;23;19903;-84
2022/02/27 03:01:58;;;;;;;;;;;128.90;2252.80;;;;;;6191186;23;20237;-77
2022/02/27 03:04:23;;;;;;;;;;;128.80;2252.80;;;;;;6217567;23;20313;-77
2022/02/27 03:06:49;;;;;;;;;;;128.80;2252.80;;;;;;6191112;23;19950;-78
2022/02/27 03:09:15;;;;;;;;;;;128.90;2252.80;;;;;;6217782;23;20306;-77
2022/02/27 03:11:41;;;;;;;;;;;128.80;2252.80;;;;;;6190800;23;19977;-78
2022/02/27 03:14:07;;;;;;;;;;;128.90;2252.80;;;;;;6217790;23;20191;-77
2022/02/27 03:16:33;;;;;;;;;;;128.90;2252.80;;;;;;6217364;23;19908;-78
2022/02/27 03:18:58;;;;;;;;;;;128.90;2252.80;;;;;;6217485;23;19906;-77
2022/02/27 03:21:24;;;;;;;;;;;128.80;2252.80;;;;;;6217346;23;19978;-78
2022/02/27 03:23:52;;;;;;;;;;;128.80;2252.80;;;;;;6190743;23;19908;-77
2022/02/27 03:26:18;;;;;;;;;;;128.80;2252.80;;;;;;6167879;23;20318;-88
2022/02/27 03:28:44;;;;;;;;;;;128.90;2252.80;;;;;;6187236;23;19987;-77
2022/02/27 03:31:10;;;;;;;;;;;128.80;2252.80;;;;;;6187153;23;19947;-77
2022/02/27 03:33:35;;;;;;;;;;;128.80;2252.80;;;;;;6160973;23;19900;-78
2022/02/27 03:36:01;;;;;;;;;;;128.90;2252.80;;;;;;6160984;23;19900;-77
2022/02/27 03:38:27;;;;;;;;;;;128.90;2252.80;;;;;;6187164;23;19974;-77
2022/02/27 03:40:54;;;;;;;;;;;128.90;2252.80;;;;;;6187500;23;19911;-77
2022/02/27 03:43:19;;;;;;;;;;;128.90;2252.80;;;;;;6160485;23;19908;-90
2022/02/27 03:45:45;;;;;;;;;;;128.80;2252.80;;;;;;6160633;23;19923;-77
2022/02/27 03:48:11;;;;;;;;;;;128.90;2252.80;;;;;;6187075;23;19904;-89
2022/02/27 03:50:36;;;;;;;;;;;153.60;2252.80;;;;;;6187015;23;19900;-78
2022/02/27 03:53:02;;;;;;;;;;;128.90;2252.80;;;;;;6187040;23;20336;-77
2022/02/27 03:55:28;;;;;;;;;;;128.80;2252.80;;;;;;6160757;23;19907;-78
2022/02/27 03:57:54;;;;;;;;;;;128.80;2252.80;;;;;;6160602;23;20332;-77
2022/02/27 04:00:19;;;;;;;;;;;128.80;2252.80;;;;;;6187342;23;19900;-90
2022/02/27 04:02:45;;;;;;;;;;;128.80;2252.80;;;;;;6160439;23;19908;-77
2022/02/27 04:05:12;;;;;;;;;;;128.80;2252.80;;;;;;6187234;23;19928;-89
2022/02/27 04:07:38;;;;;;;;;;;128.80;2252.80;;;;;;6186994;23;20313;-77
2022/02/27 04:10:03;;;;;;;;;;;128.80;2252.80;;;;;;6160497;23;19947;-77
2022/02/27 04:12:29;;;;;;;;;;;128.80;2252.80;;;;;;6187233;23;19927;-78
2022/02/27 04:14:55;;;;;;;;;;;128.80;2252.80;;;;;;6186936;23;19932;-77
2022/02/27 04:17:20;;;;;;;;;;;128.80;2252.80;;;;;;6160417;23;19900;-89
2022/02/27 04:19:46;;;;;;;;;;;128.80;2252.80;;;;;;6160542;23;19982;-77
2022/02/27 04:22:12;;;;;;;;;;;128.80;2252.80;;;;;;6186562;23;19924;-88
2022/02/27 04:24:37;;;;;;;;;;;128.80;2252.80;;;;;;6162313;23;19927;-77
2022/02/27 04:27:06;;;;;;;;;;;128.80;2252.80;;;;;;6216801;23;19908;-77
2022/02/27 04:29:32;;;;;;;;;;;128.80;2252.80;;;;;;6190370;23;19915;-77
2022/02/27 04:31:57;;;;;;;;;;;128.80;2252.80;;;;;;6190264;23;19900;-76
2022/02/27 04:34:23;;;;;;;;;;;128.80;2252.80;;;;;;6217192;23;19954;-76
2022/02/27 04:36:49;;;;;;;;;;;128.80;2252.80;;;;;;6190202;23;19938;-76
2022/02/27 04:39:14;;;;;;;;;;;128.80;2252.80;;;;;;6216765;23;20376;-77
2022/02/27 04:41:41;;;;;;;;;;;128.80;2252.80;;;;;;6190245;23;19962;-76
2022/02/27 04:44:08;;;;;;;;;;;128.80;2252.80;;;;;;6190111;23;19907;-77
2022/02/27 04:46:33;;;;;;;;;;;128.80;2252.80;;;;;;6217084;23;19900;-76
2022/02/27 04:48:59;;;;;;;;;;;128.80;2252.80;;;;;;6190097;23;19931;-90
2022/02/27 04:51:25;;;;;;;;;;;128.80;2252.80;;;;;;6189908;23;19907;-76
2022/02/27 04:53:51;;;;;;;;;;;128.80;2252.80;;;;;;6216634;23;19906;-77
2022/02/27 04:56:17;;;;;;;;;;;128.80;2252.80;;;;;;6190022;23;19899;-84
2022/02/27 04:58:42;;;;;;;;;;;128.80;2252.80;;;;;;6189720;23;20396;-76
2022/02/27 05:01:08;;;;;;;;;;;128.80;2252.80;;;;;;6190072;23;19900;-89
2022/02/27 05:03:34;;;;;;;;;;;128.90;2252.80;;;;;;6190133;23;19914;-77
2022/02/27 05:06:00;;;;;;;;;;;128.90;2252.80;;;;;;6190279;23;20340;-77
2022/02/27 05:08:25;;;;;;;;;;;128.90;2252.80;;;;;;6190168;23;19907;-88
2022/02/27 05:10:51;;;;;;;;;;;128.90;2252.80;;;;;;6216571;23;19927;-76
2022/02/27 05:13:17;;;;;;;;;;;153.90;2252.80;;;;;;6189827;23;19930;-81
2022/02/27 05:15:43;;;;;;;;;;;128.80;2252.80;;;;;;6216549;23;19908;-76
2022/02/27 05:18:08;;;;;;;;;;;128.80;2252.80;;;;;;6189897;23;19974;-77
2022/02/27 05:20:34;;;;;;;;;;;128.80;2252.80;;;;;;6216626;23;19900;-77
2022/02/27 05:22:59;;;;;;;;;;;128.80;2252.80;;;;;;6189891;23;19938;-76
2022/02/27 05:25:25;;;;;;;;;;;128.80;2252.80;;;;;;6189822;23;20318;-76
2022/02/27 05:27:52;;;;;;;;;;;128.80;2252.80;;;;;;6189880;23;20313;-76
2022/02/27 05:30:18;;;;;;;;;;;128.80;2252.80;;;;;;6216651;23;19904;-87
2022/02/27 05:32:45;;;;;;;;;;;128.80;2252.80;;;;;;6189881;23;19900;-77
2022/02/27 05:35:11;;;;;;;;;;;128.80;2252.80;;;;;;6189840;23;19911;-76
2022/02/27 05:37:36;;;;;;;;;;;128.80;2252.80;;;;;;6216156;23;19899;-76
2022/02/27 05:40:04;;;;;;;;;;;128.80;2252.80;;;;;;6214933;23;19911;-89
2022/02/27 05:42:30;;;;;;;;;;;128.80;2252.80;;;;;;6189716;23;19930;-78
2022/02/27 05:44:56;;;;;;;;;;;128.80;2252.80;;;;;;6189915;23;19946;-77
2022/02/27 05:47:21;;;;;;;;;;;128.80;2252.80;;;;;;6216439;23;19912;-88
2022/02/27 05:49:47;;;;;;;;;;;128.80;2252.80;;;;;;6189799;23;19899;-79
2022/02/27 05:52:13;;;;;;;;;;;128.80;2252.80;;;;;;6216419;23;19904;-79
2022/02/27 05:54:39;;;;;;;;;;;128.80;2252.80;;;;;;6189685;23;19907;-77
2022/02/27 05:57:04;;;;;;;;;;;128.80;2252.80;;;;;;6216388;23;19899;-88
2022/02/27 05:59:30;;;;;;;;;;;128.80;2252.80;;;;;;6216249;23;19907;-77
2022/02/27 06:01:56;;;;;;;;;;;128.80;2252.80;;;;;;6216725;23;19922;-77
2022/02/27 06:04:22;;;;;;;;;;;128.80;2252.80;;;;;;6216275;23;19915;-88
2022/02/27 06:06:48;;;;;;;;;;;128.80;2252.80;;;;;;6216236;23;19978;-77
2022/02/27 06:09:14;;;;;;;;;;;128.80;2252.80;;;;;;6216691;23;19974;-78
2022/02/27 06:11:40;;;;;;;;;;;128.80;2252.80;;;;;;6191696;23;19900;-84
2022/02/27 06:14:07;;;;;;;;;;;128.80;2252.80;;;;;;6191685;23;20325;-86
2022/02/27 06:16:32;;;;;;;;;;;128.80;2252.80;;;;;;6191740;23;20421;-86
2022/02/27 06:18:58;;;;;;;;;;;128.80;2252.80;;;;;;6191848;23;19900;-87
2022/02/27 06:21:24;;;;;;;;;;;128.80;2252.80;;;;;;6218488;23;19931;-88
2022/02/27 06:23:50;;;;;;;;;;;128.80;2252.80;;;;;;6189475;23;19959;-88
2022/02/27 06:26:16;;;;;;;;;;;128.90;2252.80;;;;;;6191599;23;20310;-88
2022/02/27 06:28:42;;;;;;;;;;;128.90;2252.80;;;;;;6192119;23;19904;-90
2022/02/27 06:31:07;;;;;;;;;;;128.80;2252.80;;;;;;6192157;23;19900;-93
2022/02/27 06:33:33;;;;;;;;;;;128.90;2252.80;;;;;;6192139;23;19904;-92
2022/02/27 06:35:59;;;;;;;;;;;128.90;2252.80;;;;;;6192192;23;19946;-91
2022/02/27 06:38:24;;;;;;;;;;;128.90;2252.80;;;;;;6191904;23;19947;-89
2022/02/27 06:40:50;;;;;;;;;;;128.90;2252.80;;;;;;6192016;23;19907;-90
2022/02/27 06:43:16;;;;;;;;;;;128.90;2252.80;;;;;;6191981;23;19914;-90
2022/02/27 06:45:41;;;;;;;;;;;128.90;2252.80;;;;;;6192174;23;20317;-92
2022/02/27 06:48:07;;;;;;;;;;;128.90;2252.80;;;;;;6191902;23;19931;-91
2022/02/27 06:50:33;;;;;;;;;;;128.90;2252.80;;;;;;6191755;23;20218;-91
2022/02/27 06:52:59;;;;;;;;;;;153.60;2252.80;;;;;;6191907;23;19907;-92
2022/02/27 06:55:24;;;;;;;;;;;128.80;2252.80;;;;;;6191799;23;19922;-92
2022/02/27 06:57:50;;;;;;;;;;;153.70;2252.80;;;;;;6191680;23;20325;-89
2022/02/27 07:00:16;;;;;;;;;;;153.70;2252.80;;;;;;6191555;23;19900;-90
2022/02/27 07:02:42;;;;;;;;;;;153.80;2252.80;;;;;;6191644;23;19903;-94
2022/02/27 07:05:08;;;;;;;;;;;153.80;2252.80;;;;;;6190927;23;19899;-92
2022/02/27 07:07:34;;;;;;;;;;;128.70;2252.80;;;;;;6191582;23;20325;-91
2022/02/27 07:10:03;;;;;;;;;;;153.80;2252.80;;;;;;6191664;23;19939;-93
2022/02/27 07:12:32;;;;;;;;;;;153.80;2252.80;;;;;;6189362;23;19903;-92
2022/02/27 07:14:58;;;;;;;;;;;153.80;2252.80;;;;;;6191294;23;19908;-92
2022/02/27 07:17:24;;;;;;;;;;;153.80;2252.80;;;;;;6191176;23;19904;-91
2022/02/27 07:19:50;;;;;;;;;;;153.80;2252.80;;;;;;6191268;23;19906;-92
2022/02/27 07:22:16;;;;;;;;;;;153.90;2252.80;;;;;;6190957;23;20329;-89
2022/02/27 07:24:42;;;;;;;;;;;154.00;2252.80;;;;;;6190406;23;19930;-93
2022/02/27 07:27:07;;;;;;;;;;;154.10;2252.80;;;;;;6191333;23;20249;-92
2022/02/27 07:29:33;;;;;;;;;;;154.10;2252.80;;;;;;6191422;23;19928;-90
2022/02/27 07:31:59;;;;;;;;;;;154.20;2252.80;;;;;;6190820;23;19906;-91
2022/02/27 07:34:25;;;;;;;;;;;154.20;2252.80;;;;;;6191512;23;20364;-92
2022/02/27 07:36:55;;;;;;;;;;;154.10;2252.80;;;;;;6187084;23;19900;-91
2022/02/27 07:39:22;;;;;;;;;;;154.10;2252.80;;;;;;6191060;23;19900;-90
2022/02/27 07:41:47;;;;;;;;;;;154.00;2252.80;;;;;;6190649;23;19900;-93
2022/02/27 07:44:13;;;;;;;;;;;154.00;2252.80;;;;;;6189926;23;19988;-92
2022/02/27 07:46:39;;;;;;;;;;;154.10;2252.80;;;;;;6190473;23;19900;-92
2022/02/27 07:49:05;;;;;;;;;;;154.10;2252.80;;;;;;6190405;23;20306;-93
2022/02/27 07:51:30;;;;;;;;;;;154.10;2252.80;;;;;;6190716;23;19900;-92
2022/02/27 07:53:56;;;;;;;;;;;154.10;2252.80;;;;;;6188139;23;20621;-93
2022/02/27 07:56:22;;;;;;;;;;;154.10;2252.80;;;;;;6190510;23;19946;-92
2022/02/27 07:58:47;;;;;;;;;;;154.20;2252.80;;;;;;6190096;23;19899;-91
2022/02/27 08:01:13;;;;;;;;;;;154.20;2252.80;;;;;;6190733;23;19927;-93
2022/02/27 08:03:39;;;;;;;;;;;154.30;2252.80;;;;;;6190412;23;20318;-92
2022/02/27 08:06:04;;;;;;;;;;;179.20;2252.80;;;;;;6190429;23;20384;-89
2022/02/27 08:08:30;;;;;;;;;;;154.30;2252.80;;;;;;6190306;23;19923;-88
2022/02/27 08:10:56;;;;;;;;;;;;;;;;;;6189510;23;19907;-87
2022/02/27 08:13:22;;;;;;;;;;;154.50;2252.80;;;;;;6214722;23;19900;-82
2022/02/27 08:15:47;;;;;;;;;;;179.30;2252.80;;;;;;6190393;23;19900;-91
2022/02/27 08:18:13;;;;;;;;;;;179.30;2252.80;;;;;;6215613;23;20381;-88
2022/02/27 08:20:38;;;;;;;;;;;179.40;2252.80;;;;;;6188816;23;20376;-90
2022/02/27 08:23:04;;;;;;;;;;;179.50;2252.80;;;;;;6214826;23;19939;-82
2022/02/27 08:25:30;;;;;;;;;;;179.70;2252.80;;;;;;6188582;23;19911;-79
2022/02/27 08:27:56;;;;;;;;;;;179.80;2252.80;;;;;;6188913;23;19911;-92
2022/02/27 08:30:21;;;;;;;;;;;205.10;2252.80;;;;;;6215161;23;20034;-78
2022/02/27 08:32:50;;;;;;;;;;;;;;;;;;6188525;23;19911;-89
2022/02/27 08:35:16;;;;;;;;;;;;;;;;;;6215261;23;19923;-81
2022/02/27 08:37:42;;;;;;;;;;;;;;;;;;6188463;23;19919;-81
2022/02/27 08:40:08;;;;;;;;;;;230.80;2252.80;;;;;;6188844;23;19904;-86
2022/02/27 08:42:34;;;;;;;;;;;;;;;;;;6214979;23;19900;-83
2022/02/27 08:45:00;;;;;;;;;;;;;;;;;;6188568;23;20027;-85
2022/02/27 08:47:26;;;;;;;;;;;;;;;;;;6215190;23;19907;-82
2022/02/27 08:49:52;;;;;;;;;;;;;;;;;;6188627;23;19982;-82
2022/02/27 08:52:18;;;;;;;;;;;;;;;;;;6214849;23;19904;-80
2022/02/27 08:54:46;;;;;;;;;;;;;;;;;;6214665;23;19908;-88
2022/02/27 08:57:12;;;;;;;;;;;;;;;;;;6188381;23;20080;-90
2022/02/27 08:59:38;;;;;;;;;;;;;;;;;;6188654;23;20393;-81
2022/02/27 09:02:04;;;;;;;;;;;;;;;;;;6215032;23;20233;-82
2022/02/27 09:04:30;;;;;;;;;;;;;;;;;;6188424;23;19997;-88
2022/02/27 09:06:56;;;;;;;;;;;;;;;;;;6188976;23;20273;-94
2022/02/27 09:09:22;;;;;;;;;;;;;;;;;;6189307;23;19946;-90
2022/02/27 09:11:48;;;;;;;;;;;;;;;;;;6188617;23;20280;-90
2022/02/27 09:14:15;;;;;;;;;;;;;;;;;;6215063;23;20310;-82
2022/02/27 09:16:41;;;;;;;;;;;;;;;;;;6214564;23;19903;-86
2022/02/27 09:19:07;;;;;;;;;;;;;;;;;;6188310;23;19900;-79
2022/02/27 09:21:32;;;;;;;;;;;;;;;;;;6189044;23;19922;-80
2022/02/27 09:23:58;;;;;;;;;;;;;;;;;;6215677;23;19931;-82
2022/02/27 09:26:24;;;;;;;;;;;;;;;;;;6189503;23;19918;-92
2022/02/27 09:28:50;;;;;;;;;;;;;;;;;;6189901;23;19899;-93
2022/02/27 09:31:16;;;;;;;;;;;;;;;;;;6216597;23;20339;-90
2022/02/27 09:33:42;;;;;;;;;;;;;;;;;;6216496;23;19904;-92
2022/02/27 09:36:10;;;;;;;;;;;;;;;;;;6190292;23;19907;-90
2022/02/27 09:38:36;;;;;;;;;;;;;;;;;;6216747;23;19900;-85
2022/02/27 09:41:02;;;;;;;;;;;;;;;;;;6189636;23;19900;-91
2022/02/27 09:43:28;;;;;;;;;;;;;;;;;;6189326;23;19957;-88
2022/02/27 09:45:54;;;;;;;;;;;;;;;;;;6191615;23;20414;-87
2022/02/27 09:48:21;;;;;;;;;;;;;;;;;;6191298;23;19924;-85
2022/02/27 09:50:47;;;;;;;;;;;;;;;;;;6191035;23;19907;-90
2022/02/27 09:53:13;;;;;;;;;;;;;;;;;;6191655;23;19904;-90
2022/02/27 09:55:40;;;;;;;;;;;;;;;;;;6194263;23;19962;-91
2022/02/27 09:58:06;;;;;;;;;;;;;;;;;;6192884;23;19961;-84
2022/02/27 10:00:32;;;;;;;;;;;;;;;;;;6191441;23;19930;-83
2022/02/27 10:02:58;;;;;;;;;;;;;;;;;;6218412;23;19907;-87
2022/02/27 10:05:24;;;;;;;;;;;;;;;;;;6218137;23;19978;-82
2022/02/27 10:07:50;;;;;;;;;;;;;;;;;;6217923;23;19903;-80
2022/02/27 10:10:16;;;;;;;;;;;;;;;;;;6218317;23;19922;-84
2022/02/27 10:12:42;;;;;;;;;;;;;;;;;;6218526;23;19942;-82
2022/02/27 10:15:08;;;;;;;;;;;;;;;;;;6192751;23;19946;-80
2022/02/27 10:17:34;;;;;;;;;;;;;;;;;;6190516;23;19982;-81
2022/02/27 10:20:00;;;;;;;;;;;;;;;;;;6217360;23;20237;-80
2022/02/27 10:22:26;;;;;;;;;;;;;;;;;;6191409;23;19962;-81
2022/02/27 10:24:53;;;;;;;;;;;;;;;;;;6217448;23;20317;-80
2022/02/27 10:27:21;;;;;;;;;;;;;;;;;;6210970;23;19908;-82
2022/02/27 10:29:47;;;;;;;;;;;;;;;;;;6189057;23;19997;-80
2022/02/27 10:32:12;;;;;;;;;;;;;;;;;;6189749;23;20393;-79
2022/02/27 10:34:39;;;;;;;;;;;;;;;;;;6189560;23;20249;-78
2022/02/27 10:37:05;;;;;;;;;;;;;;;;;;6188508;23;19907;-90
2022/02/27 10:39:31;;;;;;;;;;;;;;;;;;6189338;23;19900;-86
2022/02/27 10:41:57;;;;;;;;;;;;;;;;;;6215949;23;20317;-91
2022/02/27 10:44:23;;;;;;;;;;;;;;;;;;6215521;23;19966;-80
2022/02/27 10:46:49;;;;;;;;;;;;;;;;;;6191162;23;19900;-83
2022/02/27 10:49:15;;;;;;;;;;;;;;;;;;6216952;23;19901;-92
2022/02/27 10:51:41;;;;;;;;;;;;;;;;;;6191320;23;20281;-78
2022/02/27 10:54:07;;;;;;;;;;;;;;;;;;6183628;23;19900;-77
2022/02/27 10:56:33;;;;;;;;;;;;;;;;;;6213355;23;20282;-79
2022/02/27 10:58:59;;;;;;;;;;;;;;;;;;6216107;23;19935;-80
2022/02/27 11:01:25;;;;;;;;;;;;;;;;;;6189657;23;19923;-90
2022/02/27 11:03:51;;;;;;;;;;;;;;;;;;6189764;23;20337;-95
2022/02/27 11:06:18;;;;;;;;;;;;;;;;;;6215350;23;19907;-80
2022/02/27 11:08:44;;;;;;;;;;;;;;;;;;6188436;23;19911;-79
2022/02/27 11:11:10;;;;;;;;;;;;;;;;;;6184239;23;19922;-81
2022/02/27 11:13:36;;;;;;;;;;;;;;;;;;6188517;23;19944;-83
2022/02/27 11:16:02;;;;;;;;;;;;;;;;;;6187193;23;19998;-91
2022/02/27 11:18:28;;;;;;;;;;;;;;;;;;6189482;23;20220;-86
2022/02/27 11:20:54;;;;;;;;;;;;;;;;;;6188360;23;19900;-82
2022/02/27 11:23:20;;;;;;;;;;;;;;;;;;6188890;23;20277;-85
2022/02/27 11:25:46;;;;;;;;;;;;;;;;;;6188557;23;19951;-81
2022/02/27 11:28:12;;;;;;;;;;;;;;;;;;6187511;23;19954;-81
2022/02/27 11:30:38;;;;;;;;;;;;;;;;;;6189281;23;19903;-91
2022/02/27 11:33:07;;;;;;;;;;;;;;;;;;6216876;23;19900;-79
2022/02/27 11:35:34;;;;;;;;;;;;;;;;;;6189588;23;19907;-78
2022/02/27 11:38:00;;;;;;;;;;;;;;;;;;6189594;23;19908;-80
2022/02/27 11:40:29;;;;;;;;;;;;;;;;;;6189957;23;19900;-82
2022/02/27 11:42:55;;;;;;;;;;;;;;;;;;6189847;23;19919;-85
2022/02/27 11:45:21;;;;;;;;;;;;;;;;;;6217065;23;19906;-90
2022/02/27 11:47:47;;;;;;;;;;;;;;;;;;6190907;23;19907;-90
2022/02/27 11:50:13;;;;;;;;;;;;;;;;;;6190891;23;19900;-90
2022/02/27 11:52:39;;;;;;;;;;;;;;;;;;6190293;23;19900;-80
2022/02/27 11:55:07;;;;;;;;;;;;;;;;;;6216793;23;19899;-80
2022/02/27 11:57:33;;;;;;;;;;;;;;;;;;6216139;23;19903;-78
2022/02/27 11:59:59;;;;;;;;;;;;;;;;;;6216250;23;19911;-79
2022/02/27 12:02:25;;;;;;;;;;;;;;;;;;6189167;23;19900;-77
2022/02/27 12:04:51;;;;;;;;;;;;;;;;;;6189647;23;19900;-79
2022/02/27 12:07:17;;;;;;;;;;;;;;;;;;6216011;23;19906;-79
2022/02/27 12:09:43;;;;;;;;;;;;;;;;;;6189798;23;19963;-80
2022/02/27 12:12:09;;;;;;;;;;;;;;;;;;6190882;23;20282;-80
2022/02/27 12:14:35;;;;;;;;;;;;;;;;;;6216749;23;19899;-82
2022/02/27 12:17:01;;;;;;;;;;;;;;;;;;6189764;23;19900;-95
2022/02/27 12:19:27;;;;;;;;;;;;;;;;;;6189691;23;19907;-82
2022/02/27 12:21:55;;;;;;;;;;;;;;;;;;6188527;23;19899;-80
2022/02/27 12:24:21;;;;;;;;;;;;;;;;;;6189610;23;19914;-81
2022/02/27 12:26:48;;;;;;;;;;;;;;;;;;6189139;23;19939;-81
2022/02/27 12:29:14;;;;;;;;;;;;;;;;;;6189686;23;19927;-80
2022/02/27 12:31:40;;;;;;;;;;;;;;;;;;6215765;23;20226;-79
2022/02/27 12:34:06;;;;;;;;;;;;;;;;;;6216460;23;19916;-82
2022/02/27 12:36:36;;;;;;;;;;;;;;;;;;6188732;23;19900;-85
2022/02/27 12:39:04;;;;;;;;;;;;;;;;;;6216041;23;19950;-88
2022/02/27 12:41:30;;;;;;;;;;;;;;;;;;6189240;23;19900;-90
2022/02/27 12:43:56;;;;;;;;;;;;;;;;;;6188676;23;19918;-86
2022/02/27 12:46:22;;;;;;;;;;;;;;;;;;6189196;23;19904;-80
2022/02/27 12:51:32;;;;;;;;;;;;;;;;;;6211051;23;19965;-82
2022/02/27 12:53:58;;;;;;;;;;;;;;;;;;6188310;23;20384;-84
2022/02/27 12:56:24;;;;;;;;;;;;;;;;;;6215072;23;19900;-89
2022/02/27 12:58:50;;;;;;;;;;;;;;;;;;6214890;23;19900;-82
2022/02/27 13:01:16;;;;;;;;;;;;;;;;;;6213242;23;19900;-81
2022/02/27 13:03:42;;;;;;;;;;;;;;;;;;6213700;23;20641;-82
2022/02/27 13:06:08;;;;;;;;;;;;;;;;;;6189082;23;20394;-82
2022/02/27 13:08:34;;;;;;;;;;;;;;;;;;6189056;23;19900;-84
2022/02/27 13:11:00;;;;;;;;;;;;;;;;;;6189356;23;19907;-92
2022/02/27 13:13:26;;;;;;;;;;;;;;;;;;6216333;23;19974;-92
2022/02/27 13:15:52;;;;;;;;;;;;;;;;;;6189410;23;19970;-81
2022/02/27 13:18:18;;;;;;;;;;;;;;;;;;6215804;23;19900;-80
2022/02/27 13:20:44;;;;;;;;;;;;;;;;;;6213152;23;19987;-81
2022/02/27 13:23:10;;;;;;;;;;;;;;;;;;6191201;23;20002;-79
2022/02/27 13:25:35;;;;;;;;;;;538.40;1305.60;;;;;;6190831;23;19912;-82
2022/02/27 13:28:01;;;;;;;;;;;512.60;1305.60;;;;;;6216816;23;19958;-79
2022/02/27 13:30:27;;;;;;;;;;;486.70;1356.80;;;;;;6217320;23;20246;-79
2022/02/27 13:32:53;;;;;;;;;;;;;;;;;;6215648;23;19910;-81
2022/02/27 13:35:20;;;;;;;;;;;;;;;;;;6190835;23;19931;-84
2022/02/27 13:37:46;;;;;;;;;;;;;;;;;;6217078;23;19954;-78
2022/02/27 13:40:16;;;;;;;;;;;436.10;1484.80;;;;;;6191056;23;19987;-79
2022/02/27 13:42:46;;;;;;;;;;;512.40;1382.40;;;;;;6189082;23;19981;-78
2022/02/27 13:45:24;;;;;;;;;;;537.70;1280.00;;;;;;6190893;23;20305;-77
2022/02/27 13:47:50;;;;;;;;;;;589.20;1152.00;;;;;;6216492;23;20340;-88
2022/02/27 13:50:17;;;;;;;;;;;717.50;896.00;;;;;;6190854;23;19900;-77
2022/02/27 13:52:42;;;;;;;;;;;768.40;819.20;;;;;;6217521;23;19947;-79
2022/02/27 13:55:08;;;;;;;;;;;717.00;819.20;;;;;;6217233;23;19900;-92
2022/02/27 13:57:35;;;;;;;;;;;588.80;1049.60;;;;;;6217330;23;19978;-91
2022/02/27 14:00:14;;;;;;;;;;;537.60;1177.60;;;;;;6217501;23;19926;-91
2022/02/27 14:02:40;;;;;;;;;;;615.20;998.40;;;;;;6217191;23;20322;-92
2022/02/27 14:05:13;;;;;;;;;;;742.50;819.20;;;;;;6216708;23;19966;-91
2022/02/27 14:07:59;;;;;;;;;;;743.20;819.20;;;;;;6218132;23;19900;-91
2022/02/27 14:10:26;;;;;;;;;;;794.50;768.00;;;;;;6215627;23;19971;-78
2022/02/27 14:13:05;;;;;;;;;;;793.70;768.00;;;;;;6217641;23;19975;-83
2022/02/27 14:15:33;;;;;;;;;;;666.40;947.20;;;;;;6218410;23;19900;-85
2022/02/27 14:17:59;;;;;;;;;;;538.50;1254.40;;;;;;6191253;23;19907;-89
2022/02/27 14:20:31;;;;;;;;;;;640.30;896.00;;;;;;6191514;23;19900;-87
2022/02/27 14:23:07;;;;;;;;;;;640.30;870.40;;;;;;6191122;23;19904;-87
2022/02/27 14:25:36;;;;;;;;;;;563.70;1024.00;;;;;;6191070;23;19947;-85
2022/02/27 14:28:05;;;;;;;;;;;487.10;1408.00;;;;;;6189967;23;19903;-85
2022/02/27 14:30:34;;;;;;;;;;;460.90;1280.00;;;;;;6190936;23;19903;-86
2022/02/27 14:33:00;;;;;;;;;;;;;;;;;;6190682;23;19943;-87